Alvinopolis, Brazil
Current Conditions -  °F | °C
As of 10:00 AM on Sunday 21 Dec 2014 (Local Time) from SBCF Reporting Station
Broken Clouds Broken Clouds  
Wind Chill: 77°   Ceiling: 10000
Heat Index: 79°   Visibility: 6mi
Dew Point: 66°   Wind: 6mph
Humidity: 69%   Direction: 30°NNE
Pressure: 30.09"   Gusts: NA
Location:  20.11°S, 43.05°W
Report Text: SBCF 211200Z 03005KT 9999 FEW025 BKN100 25/19 Q1019
Loading
Personal Weather Stations






























Interactive Weather Map New forecast layout! Learn more

10-Day Weather Forecast

Advertisements
Track Severe Weather on mobile